Time;durP1;ratioP1;P1;durP2;ratioP2;P2;SDS_P1;SDS_P2;PMS_P1;PMS_P2;Temp;Humidity;BMP_temperature;BMP_pressure;BME280_temperature;BME280_humidity;BME280_pressure;Samples;Min_cycle;Max_cycle;Signal;HPM_P1;HPM_P2
2023/05/12 00:00:41;;;;;;;14.70;6.50;;;;;;;4.49;100.00;101713.66;105835;1257;62648;-51
2023/05/12 00:03:08;;;;;;;10.10;5.90;;;;;;;4.53;100.00;101715.15;105849;1257;75464;-51
2023/05/12 00:05:35;;;;;;;7.00;6.30;;;;;;;4.63;100.00;101712.14;105875;1253;66222;-51
2023/05/12 00:08:03;;;;;;;12.40;5.80;;;;;;;4.68;100.00;101710.73;105873;1252;73886;-51
2023/05/12 00:10:30;;;;;;;9.30;6.40;;;;;;;4.67;100.00;101712.62;105840;1254;62586;-51
2023/05/12 00:12:57;;;;;;;9.70;6.20;;;;;;;4.65;100.00;101716.48;105818;1252;63065;-51
2023/05/12 00:15:24;;;;;;;11.80;6.00;;;;;;;4.63;100.00;101712.83;105848;1253;76267;-51
2023/05/12 00:17:51;;;;;;;12.40;5.90;;;;;;;4.64;100.00;101706.35;105816;1256;67092;-52
2023/05/12 00:20:18;;;;;;;11.90;5.60;;;;;;;4.62;100.00;101704.94;105866;1253;74094;-52
2023/05/12 00:22:46;;;;;;;8.90;6.30;;;;;;;4.55;100.00;101705.63;105779;1253;61642;-52
2023/05/12 00:25:13;;;;;;;6.50;5.50;;;;;;;4.45;100.00;101705.88;105625;1252;62881;-51
2023/05/12 00:27:40;;;;;;;11.40;6.40;;;;;;;4.41;100.00;101703.86;105818;1256;75648;-53
2023/05/12 00:30:08;;;;;;;8.60;6.00;;;;;;;4.39;100.00;101704.67;105700;1253;67203;-52
2023/05/12 00:32:35;;;;;;;10.80;6.30;;;;;;;4.40;100.00;101701.61;105904;1253;74549;-50
2023/05/12 00:35:02;;;;;;;10.70;5.50;;;;;;;4.41;100.00;101703.34;105875;1258;63678;-50
2023/05/12 00:37:29;;;;;;;10.20;5.70;;;;;;;4.42;100.00;101703.72;105861;1252;62495;-50
2023/05/12 00:39:56;;;;;;;13.00;5.30;;;;;;;4.41;100.00;101705.92;105820;1253;76616;-51
2023/05/12 00:42:23;;;;;;;11.00;6.40;;;;;;;4.40;100.00;101707.09;105722;1257;67314;-52
2023/05/12 00:44:50;;;;;;;10.50;4.90;;;;;;;4.34;100.00;101707.63;105839;1254;75823;-51
2023/05/12 00:47:18;;;;;;;8.00;5.70;;;;;;;4.28;100.00;101704.55;105834;1253;65021;-51
2023/05/12 00:49:46;;;;;;;9.30;5.00;;;;;;;4.23;100.00;101707.33;105737;1253;62615;-51
2023/05/12 00:52:13;;;;;;;10.90;6.40;;;;;;;4.21;100.00;101703.67;105831;1256;75208;-52
2023/05/12 00:54:40;;;;;;;9.60;6.50;;;;;;;4.21;100.00;101702.14;105696;1257;67475;-53
2023/05/12 00:57:07;;;;;;;18.90;6.20;;;;;;;4.24;100.00;101704.77;105666;1254;75700;-52
2023/05/12 00:59:34;;;;;;;8.60;5.50;;;;;;;4.26;100.00;101702.79;105832;1252;64668;-50
2023/05/12 01:02:02;;;;;;;9.90;6.50;;;;;;;4.25;100.00;101702.43;105693;1254;61745;-49
2023/05/12 01:04:29;;;;;;;8.20;5.70;;;;;;;4.27;100.00;101697.35;105701;1258;76373;-50
2023/05/12 01:07:09;;;;;;;9.90;5.90;;;;;;;4.27;100.00;101697.69;105902;1254;67175;-50
2023/05/12 01:09:37;;;;;;;6.50;5.60;;;;;;;4.21;100.00;101690.19;105709;1258;75108;-50
2023/05/12 01:12:04;;;;;;;8.30;6.10;;;;;;;4.16;100.00;101690.55;105678;1254;64674;-50
2023/05/12 01:14:33;;;;;;;7.80;5.80;;;;;;;4.14;100.00;101692.04;105897;1256;61513;-50
2023/05/12 01:17:02;;;;;;;7.80;5.90;;;;;;;4.13;100.00;101689.80;105841;1253;75824;-50
2023/05/12 01:19:49;;;;;;;8.30;5.20;;;;;;;4.09;100.00;101690.71;105852;1252;67327;-51
2023/05/12 01:22:17;;;;;;;19.00;6.00;;;;;;;4.09;100.00;101693.59;105896;1253;73735;-51
2023/05/12 01:24:56;;;;;;;7.90;5.40;;;;;;;4.06;100.00;101690.10;105875;1253;61528;-51
2023/05/12 01:27:25;;;;;;;5.20;4.30;;;;;;;4.03;100.00;101695.16;105715;1259;62117;-50
2023/05/12 01:29:55;;;;;;;12.70;5.50;;;;;;;3.96;100.00;101694.13;105740;1251;76475;-50
2023/05/12 01:32:22;;;;;;;8.00;5.40;;;;;;;3.90;100.00;101691.70;105698;1253;66073;-51
2023/05/12 01:34:50;;;;;;;9.10;5.20;;;;;;;3.83;100.00;101692.36;105859;1253;75313;-51
2023/05/12 01:37:19;;;;;;;8.50;6.70;;;;;;;3.74;100.00;101693.30;105722;1259;60630;-50
2023/05/12 01:39:46;;;;;;;6.80;5.50;;;;;;;3.67;100.00;101694.27;105878;1254;63079;-49
2023/05/12 01:42:17;;;;;;;10.50;6.70;;;;;;;3.63;100.00;101690.75;105813;1253;74502;-51
2023/05/12 01:44:45;;;;;;;8.90;6.30;;;;;;;3.62;100.00;101691.04;105915;1254;66558;-51
2023/05/12 01:47:14;;;;;;;8.30;5.90;;;;;;;3.63;100.00;101695.00;105887;1252;75571;-50
2023/05/12 01:49:47;;;;;;;8.50;5.90;;;;;;;3.58;100.00;101694.03;105854;1253;61235;-50
2023/05/12 01:52:15;;;;;;;11.80;6.80;;;;;;;3.53;100.00;101696.93;105893;1253;62865;-50
2023/05/12 01:54:42;;;;;;;12.40;7.30;;;;;;;3.50;100.00;101695.47;105859;1253;74648;-50
2023/05/12 01:57:10;;;;;;;7.60;6.30;;;;;;;3.49;100.00;101692.55;105890;1252;67552;-50
2023/05/12 01:59:38;;;;;;;7.20;6.50;;;;;;;3.45;100.00;101692.26;105804;1253;73910;-50
2023/05/12 02:02:06;;;;;;;11.60;6.10;;;;;;;3.46;100.00;101691.79;105811;1253;64349;-51
2023/05/12 02:04:33;;;;;;;7.10;6.10;;;;;;;3.54;100.00;101692.00;105688;1252;62713;-51
2023/05/12 02:07:00;;;;;;;16.50;6.20;;;;;;;3.64;100.00;101687.70;105864;1256;75693;-51
2023/05/12 02:09:28;;;;;;;11.90;6.10;;;;;;;3.71;100.00;101687.08;105860;1251;67412;-51
2023/05/12 02:11:58;;;;;;;10.10;6.60;;;;;;;3.78;100.00;101686.23;105825;1257;74972;-51
2023/05/12 02:14:25;;;;;;;7.60;6.20;;;;;;;3.84;100.00;101684.70;105697;1254;61606;-50
2023/05/12 02:16:54;;;;;;;13.30;7.00;;;;;;;3.87;100.00;101684.77;105789;1253;63001;-51
2023/05/12 02:19:22;;;;;;;11.50;6.30;;;;;;;3.88;100.00;101690.45;105694;1259;75611;-50
2023/05/12 02:21:49;;;;;;;7.90;6.30;;;;;;;3.88;100.00;101688.56;105838;1253;67005;-51
2023/05/12 02:24:16;;;;;;;8.30;6.30;;;;;;;3.88;100.00;101686.52;105859;1252;74139;-51
2023/05/12 02:26:43;;;;;;;15.40;6.20;;;;;;;3.89;100.00;101691.16;105861;1253;61612;-51
2023/05/12 02:29:12;;;;;;;8.10;6.50;;;;;;;3.91;100.00;101694.98;105872;1256;61320;-51
2023/05/12 02:31:39;;;;;;;8.10;5.90;;;;;;;3.97;100.00;101688.82;105810;1254;76515;-50
2023/05/12 02:34:14;;;;;;;;;;;;;;;3.98;100.00;101694.83;105850;1253;66248;-50
2023/05/12 02:36:42;;;;;;;11.90;7.00;;;;;;;4.00;100.00;101694.55;105795;1253;74488;-50
2023/05/12 02:39:09;;;;;;;9.80;6.90;;;;;;;4.04;100.00;101689.88;105868;1257;63598;-50
2023/05/12 02:41:36;;;;;;;13.20;6.40;;;;;;;4.11;100.00;101688.89;105672;1259;62962;-49
2023/05/12 02:44:04;;;;;;;14.70;7.20;;;;;;;4.19;100.00;101691.85;105759;1251;75705;-50
2023/05/12 02:46:31;;;;;;;9.70;6.30;;;;;;;4.32;100.00;101691.33;105895;1251;67469;-51
2023/05/12 02:48:58;;;;;;;7.10;5.40;;;;;;;4.39;100.00;101689.98;105701;1255;73425;-50
2023/05/12 02:51:25;;;;;;;11.90;5.50;;;;;;;4.46;100.00;101692.23;105638;1254;62198;-50
2023/05/12 02:53:52;;;;;;;8.40;7.00;;;;;;;4.59;100.00;101689.63;105676;1253;62195;-51
2023/05/12 02:56:19;;;;;;;13.90;7.30;;;;;;;4.71;100.00;101683.27;105891;1252;76865;-50
2023/05/12 02:58:47;;;;;;;11.40;6.50;;;;;;;4.83;100.00;101684.95;105716;1253;67109;-51
2023/05/12 03:01:14;;;;;;;11.30;6.10;;;;;;;4.97;100.00;101684.77;105909;1253;76061;-51
2023/05/12 03:03:41;;;;;;;7.10;6.20;;;;;;;5.13;100.00;101685.33;105817;1255;62940;-50
2023/05/12 03:06:09;;;;;;;11.30;6.40;;;;;;;5.27;100.00;101689.42;105821;1256;61450;-51
2023/05/12 03:08:36;;;;;;;12.50;5.80;;;;;;;5.36;100.00;101688.61;105669;1259;76365;-51
2023/05/12 03:11:02;;;;;;;11.40;5.90;;;;;;;5.44;100.00;101684.84;105672;1259;66271;-50
2023/05/12 03:13:29;;;;;;;14.60;6.20;;;;;;;5.57;100.00;101679.81;105680;1253;74313;-51
2023/05/12 03:16:00;;;;;;;12.00;6.60;;;;;;;5.70;100.00;101678.89;105847;1253;64543;-50
2023/05/12 03:18:28;;;;;;;14.20;6.50;;;;;;;5.81;100.00;101683.73;105906;1257;61739;-50
2023/05/12 03:20:55;;;;;;;8.40;6.60;;;;;;;5.89;100.00;101680.84;105679;1257;76319;-50
2023/05/12 03:23:23;;;;;;;8.00;5.60;;;;;;;5.98;100.00;101680.00;105867;1253;65861;-51
2023/05/12 03:25:50;;;;;;;11.90;6.30;;;;;;;6.04;100.00;101672.94;105847;1256;75407;-51
2023/05/12 03:28:17;;;;;;;13.10;6.20;;;;;;;6.10;100.00;101677.01;105857;1253;62645;-51
2023/05/12 03:30:44;;;;;;;9.30;6.20;;;;;;;6.19;100.00;101682.84;105807;1256;61579;-52
2023/05/12 03:33:11;;;;;;;10.60;6.20;;;;;;;6.28;100.00;101682.14;105836;1256;76316;-51
2023/05/12 03:35:38;;;;;;;10.30;5.50;;;;;;;6.36;100.00;101684.86;105788;1253;66539;-51
2023/05/12 03:38:05;;;;;;;13.20;5.80;;;;;;;6.46;100.00;101687.10;105652;1253;75639;-50
2023/05/12 03:40:32;;;;;;;12.30;6.50;;;;;;;6.55;100.00;101682.47;105886;1253;62808;-51
2023/05/12 03:42:59;;;;;;;7.50;5.40;;;;;;;6.66;100.00;101687.10;105698;1257;62388;-52
2023/05/12 03:45:26;;;;;;;7.30;5.10;;;;;;;6.80;100.00;101687.88;105730;1251;75105;-51
2023/05/12 03:47:54;;;;;;;6.60;5.00;;;;;;;7.01;100.00;101689.91;105914;1258;66960;-50
2023/05/12 03:50:21;;;;;;;14.50;5.20;;;;;;;7.24;100.00;101688.90;105718;1254;74376;-51
2023/05/12 03:52:48;;;;;;;12.10;5.50;;;;;;;7.49;100.00;101686.16;105858;1257;61880;-51
2023/05/12 03:55:15;;;;;;;8.60;5.10;;;;;;;7.76;100.00;101683.94;105683;1253;62644;-51
2023/05/12 03:57:42;;;;;;;8.20;5.10;;;;;;;8.00;100.00;101680.29;105819;1256;76449;-51
2023/05/12 04:00:10;;;;;;;7.60;4.30;;;;;;;8.24;100.00;101682.45;105764;1253;67701;-52
2023/05/12 04:02:45;;;;;;;9.70;5.20;;;;;;;8.49;100.00;101688.74;105889;1253;75435;-53
2023/05/12 04:05:12;;;;;;;8.50;5.10;;;;;;;8.68;100.00;101690.31;105893;1253;63102;-52
2023/05/12 04:07:40;;;;;;;9.40;4.60;;;;;;;8.90;100.00;101699.63;105757;1257;62754;-52
2023/05/12 04:10:08;;;;;;;7.50;4.40;;;;;;;9.12;100.00;101709.96;105667;1253;75806;-51
2023/05/12 04:12:35;;;;;;;16.00;4.50;;;;;;;9.35;100.00;101714.61;105665;1257;67296;-51
2023/05/12 04:15:03;;;;;;;7.80;4.50;;;;;;;9.55;100.00;101721.63;105613;1256;75450;-50
2023/05/12 04:17:30;;;;;;;10.50;4.70;;;;;;;9.75;100.00;101735.52;105728;1256;62518;-50
2023/05/12 04:19:57;;;;;;;12.00;3.80;;;;;;;9.96;100.00;101753.21;105676;1258;63247;-53
2023/05/12 04:22:24;;;;;;;13.80;4.90;;;;;;;10.22;100.00;101778.67;105859;1256;76164;-50
2023/05/12 04:24:52;;;;;;;7.20;4.20;;;;;;;10.48;100.00;101811.61;105936;1254;66149;-50
2023/05/12 04:27:19;;;;;;;11.80;4.60;;;;;;;10.74;100.00;101851.40;105681;1259;74349;-50
2023/05/12 04:29:47;;;;;;;11.30;4.50;;;;;;;10.96;100.00;101903.27;105664;1255;63144;-51
2023/05/12 04:32:14;;;;;;;13.60;4.20;;;;;;;11.09;100.00;101982.27;105918;1257;61311;-50
2023/05/12 04:34:42;;;;;;;8.80;4.20;;;;;;;11.24;100.00;102035.89;105597;1253;309887;-50
2023/05/12 04:39:09;;;;;;;8.10;3.90;;;;;;;11.65;100.00;101836.46;102693;1292;600815;-51
2023/05/12 04:41:36;;;;;;;16.50;4.50;;;;;;;11.81;100.00;101517.36;104738;1272;59347;-51
2023/05/12 04:44:04;;;;;;;8.90;4.30;;;;;;;11.90;100.00;101260.13;104784;1272;61616;-52
2023/05/12 04:46:31;;;;;;;5.00;4.00;;;;;;;11.94;100.00;101222.02;104740;1273;75240;-50
2023/05/12 04:48:59;;;;;;;11.10;4.20;;;;;;;11.98;100.00;101303.63;104817;1267;66787;-50
2023/05/12 04:51:26;;;;;;;9.00;4.40;;;;;;;12.11;100.00;101349.70;104712;1267;75195;-50
2023/05/12 04:53:53;;;;;;;7.00;3.70;;;;;;;12.26;100.00;101432.45;104762;1264;418094;-50
2023/05/12 04:56:21;;;;;;;8.60;4.30;;;;;;;12.41;100.00;101498.23;104906;1269;61384;-51
2023/05/12 04:58:48;;;;;;;8.90;3.60;;;;;;;12.59;92.03;101503.94;105139;1269;73739;-51
2023/05/12 05:01:15;;;;;;;9.40;3.50;;;;;;;12.73;75.02;101520.59;104887;1265;65979;-50
2023/05/12 05:03:42;;;;;;;17.50;4.00;;;;;;;12.86;77.32;101561.00;104838;1264;75332;-51
2023/05/12 05:06:10;;;;;;;12.50;4.40;;;;;;;13.03;76.22;101560.29;105080;1264;63360;-51
2023/05/12 05:08:37;;;;;;;10.30;3.80;;;;;;;13.18;70.59;101555.80;104915;1269;63221;-51
2023/05/12 05:11:05;;;;;;;16.80;4.00;;;;;;;13.37;68.80;101547.42;105246;1257;74768;-51
2023/05/12 05:13:32;;;;;;;7.20;3.80;;;;;;;13.53;67.65;101558.34;105256;1263;67431;-49
2023/05/12 05:15:59;;;;;;;6.50;3.60;;;;;;;13.66;65.50;101537.35;105555;1262;74159;-51
2023/05/12 05:18:27;;;;;;;9.20;3.50;;;;;;;13.82;62.10;101496.54;105234;1257;62689;-51
2023/05/12 05:20:56;;;;;;;10.40;3.60;;;;;;;14.07;63.45;101571.29;105285;1258;62412;-51
2023/05/12 05:23:25;;;;;;;12.40;4.10;;;;;;;14.30;60.56;101485.85;105263;1264;75503;-51
2023/05/12 05:25:53;;;;;;;12.20;3.90;;;;;;;14.54;59.37;101481.08;105526;1257;66178;-50
2023/05/12 05:28:20;;;;;;;8.90;3.90;;;;;;;14.78;58.10;101459.80;105425;1262;74408;-50
2023/05/12 05:30:46;;;;;;;12.90;3.80;;;;;;;15.00;57.37;101459.38;105501;1260;63050;-50
2023/05/12 05:33:14;;;;;;;7.70;3.70;;;;;;;15.23;55.85;101398.55;105262;1257;61322;-50
2023/05/12 05:35:41;;;;;;;11.90;3.90;;;;;;;15.33;53.54;101302.87;105498;1262;74014;-50
2023/05/12 05:38:09;;;;;;;17.10;3.70;;;;;;;15.40;53.30;101339.02;105485;1257;67707;-50
2023/05/12 05:40:36;;;;;;;12.90;4.20;;;;;;;15.52;53.89;101402.91;105484;1258;73882;-50
2023/05/12 05:43:18;;;;;;;10.70;3.60;;;;;;;15.72;53.69;101405.05;105606;1254;63064;-50
2023/05/12 05:45:48;;;;;;;9.30;3.40;;;;;;;15.83;52.02;101298.61;105680;1254;62667;-50
2023/05/12 05:48:15;;;;;;;8.10;3.40;;;;;;;15.77;51.44;101293.70;105729;1253;74571;-50
2023/05/12 05:50:42;;;;;;;11.40;3.80;;;;;;;15.82;52.01;101355.38;105676;1253;65884;-50
2023/05/12 05:53:09;;;;;;;7.20;3.60;;;;;;;15.94;51.83;101360.67;105671;1259;75130;-49
2023/05/12 05:55:36;;;;;;;4.20;3.50;;;;;;;16.00;51.51;101334.56;105614;1261;63199;-49
2023/05/12 05:58:04;;;;;;;10.20;4.00;;;;;;;16.14;52.01;101394.79;105616;1259;60326;-49
2023/05/12 06:00:31;;;;;;;7.40;3.40;;;;;;;16.27;51.62;101366.20;105669;1259;73774;-50
2023/05/12 06:02:58;;;;;;;10.60;3.90;;;;;;;16.35;50.07;101256.63;105622;1254;67823;-50
2023/05/12 06:05:26;;;;;;;7.70;3.40;;;;;;;16.33;49.81;101265.39;105669;1259;73960;-49
2023/05/12 06:07:53;;;;;;;9.70;3.70;;;;;;;16.28;49.65;101269.01;105672;1254;62117;-49
2023/05/12 06:10:19;;;;;;;12.20;3.50;;;;;;;16.24;49.66;101275.23;105670;1254;62461;-50
2023/05/12 06:12:49;;;;;;;6.10;3.70;;;;;;;16.25;49.92;101320.13;105653;1258;75879;-51
2023/05/12 06:15:16;;;;;;;9.80;3.40;;;;;;;16.27;50.69;101389.21;105728;1254;66270;-50
2023/05/12 06:17:44;;;;;;;6.70;3.50;;;;;;;16.37;50.40;101372.03;105661;1257;74466;-54
2023/05/12 06:20:12;;;;;;;21.10;3.80;;;;;;;16.38;50.03;101345.02;105658;1258;63414;-49
2023/05/12 06:22:41;;;;;;;6.00;3.20;;;;;;;16.34;49.30;101278.60;105608;1259;60617;-49
2023/05/12 06:25:09;;;;;;;9.60;3.10;;;;;;;16.33;48.99;101271.66;105678;1256;75692;-50
2023/05/12 06:27:37;;;;;;;10.50;3.10;;;;;;;16.36;49.27;101304.47;105668;1254;65968;-51
2023/05/12 06:30:06;;;;;;;32.50;4.00;;;;;;;16.50;50.34;101404.42;105674;1259;74878;-57
2023/05/12 06:32:33;;;;;;;8.50;3.20;;;;;;;16.70;50.86;101443.59;105702;1253;61226;-51
2023/05/12 06:35:00;;;;;;;15.00;3.30;;;;;;;16.74;49.10;101295.52;105670;1254;61453;-49
2023/05/12 06:37:27;;;;;;;10.90;3.50;;;;;;;16.76;49.83;101371.09;105626;1254;75287;-49
2023/05/12 06:39:54;;;;;;;7.10;3.30;;;;;;;16.85;49.62;101355.51;105641;1253;67123;-48
2023/05/12 06:42:22;;;;;;;9.30;3.30;;;;;;;16.90;48.80;101292.75;105641;1259;75281;-49
2023/05/12 06:44:50;;;;;;;7.00;3.50;;;;;;;16.91;48.74;101283.83;105638;1255;63487;-49
2023/05/12 06:47:19;;;;;;;7.30;3.30;;;;;;;17.02;48.49;101274.11;105722;1253;61256;-49
2023/05/12 06:49:48;;;;;;;10.90;3.30;;;;;;;17.07;47.61;101209.95;105709;1259;73969;-48
2023/05/12 06:52:16;;;;;;;6.10;2.90;;;;;;;17.08;47.28;101182.71;105692;1253;67542;-49
2023/05/12 06:54:43;;;;;;;15.30;3.70;;;;;;;17.14;46.98;101159.15;105611;1257;75102;-48
2023/05/12 06:57:11;;;;;;;13.60;2.90;;;;;;;17.29;46.81;101158.13;105646;1253;62829;-49
2023/05/12 06:59:38;;;;;;;9.20;3.10;;;;;;;17.47;46.40;101130.59;105624;1254;62749;-48
2023/05/12 07:02:05;;;;;;;8.50;4.00;;;;;;;17.66;45.36;101015.27;105666;1254;75522;-49
2023/05/12 07:04:32;;;;;;;7.90;3.00;;;;;;;17.77;44.71;100946.92;105665;1259;65828;-49
2023/05/12 07:06:59;;;;;;;6.90;3.00;;;;;;;17.97;44.56;100949.45;105640;1254;75383;-49
2023/05/12 07:09:26;;;;;;;4.80;2.50;;;;;;;18.18;42.84;100757.70;105642;1259;60905;-49
2023/05/12 07:11:53;;;;;;;8.20;2.80;;;;;;;18.33;42.24;100708.82;105662;1253;63282;-49
2023/05/12 07:14:20;;;;;;;13.80;3.40;;;;;;;18.37;42.52;100736.75;105636;1253;74417;-48
2023/05/12 07:16:47;;;;;;;7.20;2.90;;;;;;;18.40;40.31;100543.41;105623;1253;67527;-49
2023/05/12 07:19:14;;;;;;;6.00;3.10;;;;;;;18.34;39.97;100510.52;105607;1259;75216;-49
2023/05/12 07:21:42;;;;;;;9.80;3.00;;;;;;;18.35;39.88;100477.61;105600;1256;62536;-49
2023/05/12 07:24:09;;;;;;;10.90;3.50;;;;;;;18.51;39.67;100478.73;105724;1259;62822;-49
2023/05/12 07:26:36;;;;;;;9.40;3.20;;;;;;;18.66;40.50;100568.69;105628;1259;75674;-50
2023/05/12 07:29:04;;;;;;;8.70;2.60;;;;;;;18.93;38.19;100324.64;105667;1254;65958;-49
2023/05/12 07:31:32;;;;;;;10.90;3.40;;;;;;;19.20;38.30;100343.47;105614;1259;75224;-50
2023/05/12 07:33:59;;;;;;;4.70;3.00;;;;;;;19.22;39.21;100431.54;105692;1259;61829;-49
2023/05/12 07:36:27;;;;;;;6.60;2.80;;;;;;;19.27;38.21;100352.54;105652;1253;61948;-50
2023/05/12 07:38:54;;;;;;;16.00;3.00;;;;;;;19.37;38.78;100416.86;105659;1259;75341;-50
2023/05/12 07:41:21;;;;;;;16.80;3.20;;;;;;;19.64;38.29;100388.23;105618;1253;67489;-49
2023/05/12 07:43:48;;;;;;;7.20;3.00;;;;;;;19.86;37.47;100278.27;105619;1257;74152;-50
2023/05/12 07:46:15;;;;;;;6.10;2.50;;;;;;;20.03;37.24;100258.14;105633;1253;62718;-50
2023/05/12 07:48:42;;;;;;;15.90;3.60;;;;;;;20.41;37.52;100273.33;105643;1253;62953;-50
2023/05/12 07:51:08;;;;;;;9.30;3.00;;;;;;;20.84;37.68;100297.67;105634;1253;74843;-49
2023/05/12 07:53:35;;;;;;;11.80;2.60;;;;;;;21.27;36.14;100147.67;105650;1259;67289;-50
2023/05/12 07:56:02;;;;;;;4.10;1.70;;;;;;;21.52;33.84;99858.17;105602;1257;74196;-51
2023/05/12 07:58:29;;;;;;;10.80;2.50;;;;;;;21.46;32.44;99663.77;105609;1254;62906;-51
2023/05/12 08:00:58;;;;;;;8.10;2.40;;;;;;;21.36;32.45;99654.95;105642;1253;62697;-50
2023/05/12 08:03:26;;;;;;;6.80;1.80;;;;;;;21.14;32.26;99647.95;105570;1253;74928;-50
2023/05/12 08:05:53;;;;;;;7.60;2.40;;;;;;;20.85;32.12;99656.59;105365;1254;67522;-49
2023/05/12 08:08:20;;;;;;;4.70;2.10;;;;;;;20.35;33.62;99829.24;105624;1259;75618;-51
2023/05/12 08:10:47;;;;;;;6.80;2.10;;;;;;;20.02;33.51;99875.05;105668;1254;62670;-51
2023/05/12 08:13:14;;;;;;;5.30;1.90;;;;;;;19.76;34.80;100015.89;105609;1254;61954;-51
2023/05/12 08:15:41;;;;;;;4.10;2.10;;;;;;;19.92;34.51;100047.10;105617;1259;73668;-50
2023/05/12 08:18:08;;;;;;;5.70;2.10;;;;;;;20.32;33.13;99895.86;105661;1253;66907;-51
2023/05/12 08:20:36;;;;;;;5.80;2.00;;;;;;;20.67;33.09;99867.36;105601;1257;73909;-50
2023/05/12 08:23:02;;;;;;;10.50;2.90;;;;;;;21.09;31.62;99713.38;105633;1259;62852;-51
2023/05/12 08:25:30;;;;;;;7.60;2.80;;;;;;;21.26;32.18;99730.03;105645;1259;62663;-50
2023/05/12 08:27:58;;;;;;;8.50;3.00;;;;;;;21.09;32.60;99787.96;105670;1259;75491;-51
2023/05/12 08:30:25;;;;;;;7.70;2.70;;;;;;;21.00;33.12;99841.41;105668;1254;67323;-50
2023/05/12 08:32:56;;;;;;;5.60;2.60;;;;;;;21.04;33.39;99919.70;105666;1258;74286;-50
2023/05/12 08:35:24;;;;;;;3.60;2.00;;;;;;;21.14;32.89;99829.14;105691;1253;62391;-50
2023/05/12 08:37:51;;;;;;;6.80;2.20;;;;;;;21.06;32.31;99762.89;105637;1259;61736;-49
2023/05/12 08:40:23;;;;;;;10.90;2.80;;;;;;;20.71;32.42;99754.05;105637;1254;74902;-48
2023/05/12 08:43:12;;;;;;;5.80;2.70;;;;;;;20.21;32.74;99811.64;105668;1259;67559;-49
2023/05/12 08:45:39;;;;;;;4.50;2.20;;;;;;;19.98;33.86;99938.20;105571;1257;74116;-49
2023/05/12 08:48:08;;;;;;;2.70;2.30;;;;;;;19.86;34.77;100060.16;105609;1253;62620;-50
2023/05/12 08:50:37;;;;;;;6.20;2.70;;;;;;;19.67;35.01;100114.98;105639;1254;61499;-49
2023/05/12 08:53:04;;;;;;;5.40;2.70;;;;;;;19.31;35.68;100209.41;105665;1258;76558;-50
2023/05/12 08:55:31;;;;;;;6.00;3.10;;;;;;;18.96;35.58;100208.42;105669;1253;66006;-50
2023/05/12 08:58:01;;;;;;;9.30;2.90;;;;;;;18.69;37.23;100375.59;105641;1256;74200;-49
2023/05/12 09:00:29;;;;;;;6.80;2.60;;;;;;;18.80;37.45;100430.94;105701;1253;62868;-50
2023/05/12 09:02:58;;;;;;;4.80;2.70;;;;;;;18.99;37.29;100449.85;105723;1259;61880;-50
2023/05/12 09:05:26;;;;;;;4.40;2.80;;;;;;;19.11;36.44;100367.75;105610;1259;76325;-49
2023/05/12 09:07:54;;;;;;;6.70;2.90;;;;;;;19.33;37.33;100435.27;105634;1253;66528;-50
2023/05/12 09:10:21;;;;;;;7.80;2.80;;;;;;;19.74;35.96;100352.79;105694;1254;75954;-50
2023/05/12 09:13:44;;;;;;;2.60;2.20;;;;;;;20.17;35.27;100227.66;105644;1258;61915;-50
2023/05/12 09:16:12;;;;;;;3.60;2.40;;;;;;;20.80;33.89;100062.14;105426;1256;62116;-50
2023/05/12 09:18:53;;;;;;;3.80;2.50;;;;;;;21.02;33.30;99988.75;105688;1254;76478;-50
2023/05/12 09:21:21;;;;;;;6.90;2.30;;;;;;;21.17;33.10;99946.63;105742;1253;66599;-50
2023/05/12 09:24:04;;;;;;;14.60;2.40;;;;;;;21.27;33.51;99979.11;105690;1255;75528;-51
2023/05/12 09:26:43;;;;;;;7.10;2.50;;;;;;;21.33;31.75;99789.73;105680;1257;62429;-51
2023/05/12 09:29:10;;;;;;;8.50;2.30;;;;;;;21.35;32.55;99838.54;105709;1253;62769;-51
2023/05/12 09:31:50;;;;;;;7.30;2.40;;;;;;;21.38;32.25;99808.48;105680;1259;75415;-50
2023/05/12 09:34:18;;;;;;;4.90;1.90;;;;;;;21.45;32.41;99835.16;105722;1259;66337;-51
2023/05/12 09:36:54;;;;;;;7.10;2.70;;;;;;;21.25;33.17;99884.19;105678;1259;75522;-51
2023/05/12 09:39:21;;;;;;;12.30;2.20;;;;;;;20.85;32.12;99785.80;105727;1254;61996;-51
2023/05/12 09:41:48;;;;;;;5.00;2.00;;;;;;;20.34;33.68;99931.48;105698;1253;61730;-50
2023/05/12 09:44:15;;;;;;;6.30;2.30;;;;;;;20.12;34.51;100053.96;105711;1258;76165;-50
2023/05/12 09:46:43;;;;;;;12.60;2.60;;;;;;;19.98;34.16;100064.99;105725;1254;66905;-51
2023/05/12 09:49:11;;;;;;;5.20;1.90;;;;;;;19.99;34.93;100124.45;105714;1257;73641;-51
2023/05/12 09:51:39;;;;;;;5.70;1.90;;;;;;;20.25;33.01;99979.20;105679;1254;63448;-51
2023/05/12 09:54:06;;;;;;;10.70;2.20;;;;;;;20.33;33.73;100003.52;105662;1254;62436;-51
2023/05/12 09:56:36;;;;;;;6.30;2.10;;;;;;;20.56;33.41;99984.33;105643;1259;75915;-50
2023/05/12 09:59:04;;;;;;;5.10;2.00;;;;;;;20.63;32.29;99871.64;105659;1260;66973;-51
2023/05/12 10:01:31;;;;;;;14.10;2.30;;;;;;;20.41;33.05;99914.31;105668;1259;75212;-51
2023/05/12 10:03:58;;;;;;;6.80;2.40;;;;;;;20.53;33.78;100022.89;105652;1255;63873;-51
2023/05/12 10:06:29;;;;;;;3.80;2.10;;;;;;;20.64;33.21;99937.64;105689;1259;61706;-51
2023/05/12 10:09:19;;;;;;;6.10;2.30;;;;;;;20.65;32.54;99896.38;105642;1258;74966;-51
2023/05/12 10:11:46;;;;;;;6.90;2.50;;;;;;;20.65;32.49;99869.20;105664;1254;66682;-49
2023/05/12 10:14:13;;;;;;;9.00;2.40;;;;;;;20.76;33.04;99901.27;105681;1258;75253;-50
2023/05/12 10:16:40;;;;;;;5.20;2.30;;;;;;;20.99;32.43;99858.33;105646;1254;62823;-50
2023/05/12 10:19:07;;;;;;;10.10;2.10;;;;;;;20.88;32.99;99895.34;105656;1254;62803;-50
2023/05/12 10:21:35;;;;;;;3.90;2.10;;;;;;;20.59;33.57;99955.53;105606;1254;74226;-49
2023/05/12 10:24:03;;;;;;;8.50;2.50;;;;;;;20.28;34.16;100021.70;105706;1254;67318;-50
2023/05/12 10:26:31;;;;;;;7.30;2.40;;;;;;;19.97;35.14;100129.12;105733;1259;74979;-49
2023/05/12 10:28:58;;;;;;;9.30;2.40;;;;;;;19.86;35.87;100224.52;105709;1259;62890;-49
2023/05/12 10:31:26;;;;;;;7.30;2.60;;;;;;;19.83;35.20;100202.64;105654;1255;62936;-49
2023/05/12 10:33:57;;;;;;;4.30;2.10;;;;;;;19.74;34.47;100138.58;105733;1254;76870;-50
2023/05/12 10:36:25;;;;;;;7.40;2.50;;;;;;;19.76;34.32;100120.94;105734;1259;67041;-52
2023/05/12 10:38:52;;;;;;;9.90;2.20;;;;;;;19.86;34.30;100105.30;105715;1254;75162;-50
2023/05/12 10:41:29;;;;;;;9.20;2.20;;;;;;;20.10;34.06;100065.98;105673;1257;62160;-50
2023/05/12 10:43:56;;;;;;;5.30;2.30;;;;;;;20.26;34.28;100071.74;105702;1259;62383;-50
2023/05/12 10:46:25;;;;;;;8.30;2.20;;;;;;;20.54;34.49;100095.69;105691;1254;76168;-51
2023/05/12 10:48:57;;;;;;;9.20;2.50;;;;;;;20.92;34.25;100050.10;105668;1253;66346;-51
2023/05/12 10:51:29;;;;;;;4.30;2.30;;;;;;;21.05;32.48;99916.41;105669;1257;74563;-52
2023/05/12 10:54:02;;;;;;;8.70;2.30;;;;;;;21.05;32.73;99864.35;105694;1259;62149;-52
2023/05/12 10:56:40;;;;;;;3.90;2.00;;;;;;;21.16;32.62;99857.79;105725;1259;61551;-49
2023/05/12 10:59:22;;;;;;;4.40;2.20;;;;;;;21.16;33.24;99908.45;105690;1254;75066;-50
2023/05/12 11:02:00;;;;;;;5.70;2.20;;;;;;;21.28;32.45;99851.17;105705;1254;65883;-50
2023/05/12 11:04:46;;;;;;;10.90;2.10;;;;;;;21.43;32.54;99829.52;105668;1254;75241;-50
2023/05/12 11:07:19;;;;;;;2.30;2.10;;;;;;;21.19;32.78;99864.04;105725;1253;62898;-50
2023/05/12 11:09:49;;;;;;;8.60;2.20;;;;;;;20.75;32.67;99853.48;105733;1256;62065;-51
2023/05/12 11:12:27;;;;;;;6.20;2.50;;;;;;;20.07;33.24;99926.59;105666;1259;76633;-51
2023/05/12 11:14:54;;;;;;;9.20;2.20;;;;;;;19.57;33.70;99978.11;105707;1254;67152;-50
2023/05/12 11:17:21;;;;;;;5.30;2.00;;;;;;;19.21;34.49;100058.34;105720;1257;74347;-51
2023/05/12 11:19:49;;;;;;;14.00;3.10;;;;;;;19.06;35.47;100168.50;105676;1254;62438;-50
2023/05/12 11:22:18;;;;;;;4.10;1.90;;;;;;;18.98;34.87;100135.94;105576;1259;61741;-50